Time;durP1;ratioP1;P1;durP2;ratioP2;P2;SDS_P1;SDS_P2;PMS_P1;PMS_P2;Temp;Humidity;BMP_temperature;BMP_pressure;BME280_temperature;BME280_humidity;BME280_pressure;Samples;Min_cycle;Max_cycle;Signal;HPM_P1;HPM_P2
2023/09/22 00:00:44;;;;;;;10.10;8.23;;;16.80;99.90;;;;;;5016589;28;20083;-86
2023/09/22 00:03:10;;;;;;;9.43;8.40;;;16.80;99.90;;;;;;5016414;28;20092;-86
2023/09/22 00:05:36;;;;;;;10.63;9.52;;;16.80;99.90;;;;;;4999162;28;20042;-86
2023/09/22 00:08:03;;;;;;;10.10;9.10;;;16.80;99.90;;;;;;4999168;28;20030;-86
2023/09/22 00:10:29;;;;;;;9.20;8.30;;;16.70;99.90;;;;;;5016315;28;20121;-87
2023/09/22 00:12:55;;;;;;;11.48;8.93;;;16.70;99.90;;;;;;5016530;28;20108;-89
2023/09/22 00:15:21;;;;;;;10.20;9.20;;;16.60;99.90;;;;;;5017110;28;20459;-88
2023/09/22 00:17:47;;;;;;;11.45;9.77;;;16.50;99.90;;;;;;4998898;28;20034;-86
2023/09/22 00:20:15;;;;;;;10.27;9.18;;;16.50;99.90;;;;;;5015939;28;20030;-83
2023/09/22 00:22:42;;;;;;;10.60;9.43;;;16.50;99.90;;;;;;4998782;28;20105;-86
2023/09/22 00:25:09;;;;;;;11.07;9.88;;;16.50;99.90;;;;;;5014845;28;20029;-85
2023/09/22 00:27:35;;;;;;;12.48;9.93;;;16.50;99.90;;;;;;4998328;28;20529;-87
2023/09/22 00:30:02;;;;;;;12.48;11.25;;;16.50;99.90;;;;;;5016202;28;20096;-88
2023/09/22 00:32:28;;;;;;;14.20;11.30;;;16.60;99.90;;;;;;4999087;28;20509;-85
2023/09/22 00:34:54;;;;;;;13.02;11.27;;;16.50;99.90;;;;;;4998987;28;20064;-85
2023/09/22 00:37:20;;;;;;;13.30;11.90;;;16.50;99.90;;;;;;5015972;28;20049;-86
2023/09/22 00:39:46;;;;;;;15.13;13.52;;;16.50;99.90;;;;;;4998911;28;20467;-88
2023/09/22 00:42:11;;;;;;;17.67;15.77;;;16.50;99.90;;;;;;5016964;28;20041;-88
2023/09/22 00:44:37;;;;;;;13.18;10.45;;;16.50;99.90;;;;;;5018613;28;20060;-89
2023/09/22 00:47:05;;;;;;;15.65;13.88;;;16.50;99.90;;;;;;4999377;28;20034;-88
2023/09/22 00:49:31;;;;;;;14.73;13.07;;;16.50;99.90;;;;;;5017023;28;20033;-89
2023/09/22 00:51:58;;;;;;;16.33;14.45;;;16.50;99.90;;;;;;5000165;28;20030;-89
2023/09/22 00:54:24;;;;;;;21.55;18.85;;;16.60;99.90;;;;;;5017468;28;20459;-90
2023/09/22 00:56:51;;;;;;;18.67;16.67;;;16.60;99.90;;;;;;5003027;28;20570;-89
2023/09/22 00:59:17;;;;;;;19.52;16.70;;;16.60;99.90;;;;;;4990092;28;20026;-90
2023/09/22 01:01:44;;;;;;;20.45;17.60;;;16.60;99.90;;;;;;5018943;28;20145;-88
2023/09/22 01:04:13;;;;;;;22.42;17.75;;;16.60;99.90;;;;;;4985767;28;20036;-90
2023/09/22 01:06:42;;;;;;;22.48;18.75;;;16.60;99.90;;;;;;5021063;28;20034;-90
2023/09/22 01:09:10;;;;;;;20.73;17.55;;;16.60;99.90;;;;;;5016925;28;20099;-86
2023/09/22 01:11:36;;;;;;;22.02;18.83;;;16.70;99.90;;;;;;5016138;28;20061;-90
2023/09/22 01:14:02;;;;;;;21.02;18.52;;;16.60;99.90;;;;;;4998526;28;20173;-87
2023/09/22 01:16:29;;;;;;;22.33;19.30;;;16.50;99.90;;;;;;5015438;28;20044;-89
2023/09/22 01:18:56;;;;;;;22.77;18.70;;;16.50;99.90;;;;;;4998611;28;20478;-90
2023/09/22 01:21:28;;;;;;;22.50;18.15;;;16.50;99.90;;;;;;4998027;28;20026;-91
2023/09/22 01:23:53;;;;;;;16.70;14.40;;;16.40;99.90;;;;;;5016078;28;20116;-91
2023/09/22 01:26:21;;;;;;;21.27;17.60;;;16.40;99.90;;;;;;4998543;28;20481;-92
2023/09/22 01:28:47;;;;;;;18.92;16.08;;;16.30;99.90;;;;;;4999773;28;20056;-89
2023/09/22 01:31:12;;;;;;;18.55;15.73;;;16.30;99.90;;;;;;5016482;28;20498;-92
2023/09/22 01:33:39;;;;;;;20.40;16.40;;;16.30;99.90;;;;;;5014514;28;20026;-93
2023/09/22 01:36:04;;;;;;;22.08;15.45;;;16.20;99.90;;;;;;5016007;28;20033;-91
2023/09/22 01:38:30;;;;;;;17.15;14.35;;;16.20;99.90;;;;;;5015553;28;20037;-87
2023/09/22 01:40:58;;;;;;;18.88;14.65;;;16.20;99.90;;;;;;4998277;28;20113;-88
2023/09/22 01:43:24;;;;;;;13.75;11.95;;;16.20;99.90;;;;;;5015375;28;20029;-86
2023/09/22 01:45:49;;;;;;;22.23;17.17;;;16.20;99.90;;;;;;4997998;28;20034;-86
2023/09/22 01:48:15;;;;;;;20.70;15.82;;;16.20;99.90;;;;;;5014566;28;20383;-87
2023/09/22 01:50:41;;;;;;;20.95;15.15;;;16.20;99.90;;;;;;5015489;28;20041;-89
2023/09/22 01:53:11;;;;;;;19.92;16.17;;;16.30;99.90;;;;;;4998286;28;20084;-90
2023/09/22 01:55:38;;;;;;;17.95;14.02;;;16.20;99.90;;;;;;5014712;28;20037;-86
2023/09/22 01:58:04;;;;;;;22.58;15.98;;;16.20;99.90;;;;;;4981970;28;20034;-87
2023/09/22 02:00:31;;;;;;;18.98;14.77;;;16.20;99.90;;;;;;5014192;28;20076;-84
2023/09/22 02:02:57;;;;;;;16.08;13.90;;;16.20;99.90;;;;;;5014046;28;20050;-84
2023/09/22 02:05:23;;;;;;;17.88;12.73;;;16.20;99.90;;;;;;5013834;28;20076;-85
2023/09/22 02:07:48;;;;;;;14.48;11.77;;;16.20;99.90;;;;;;4996400;28;20149;-85
2023/09/22 02:10:14;;;;;;;13.25;10.18;;;16.30;99.90;;;;;;5013786;28;20053;-84
2023/09/22 02:12:41;;;;;;;15.05;12.40;;;16.30;99.90;;;;;;4996756;28;20435;-82
2023/09/22 02:15:10;;;;;;;16.08;13.05;;;16.30;99.90;;;;;;4996236;28;20038;-84
2023/09/22 02:17:40;;;;;;;13.13;11.27;;;16.30;99.90;;;;;;5014028;28;20179;-83
2023/09/22 02:20:22;;;;;;;13.77;10.65;;;16.40;99.90;;;;;;5013833;28;20030;-82
2023/09/22 02:22:49;;;;;;;10.23;8.35;;;16.40;99.90;;;;;;5013688;28;20096;-81
2023/09/22 02:25:16;;;;;;;9.98;8.45;;;16.50;99.90;;;;;;4979935;28;20038;-81
2023/09/22 02:27:43;;;;;;;12.35;8.43;;;16.40;99.90;;;;;;5013808;28;20084;-83
2023/09/22 02:30:10;;;;;;;8.98;7.18;;;16.40;99.90;;;;;;4980047;28;20026;-83
2023/09/22 02:32:37;;;;;;;7.07;5.93;;;16.50;99.90;;;;;;4980008;28;20030;-84
2023/09/22 02:35:02;;;;;;;8.73;4.90;;;16.60;99.90;;;;;;5013645;28;20026;-84
2023/09/22 02:37:29;;;;;;;6.53;5.32;;;16.60;99.90;;;;;;5013805;28;20429;-83
2023/09/22 02:39:55;;;;;;;5.55;5.00;;;16.70;99.90;;;;;;5013572;28;20057;-84
2023/09/22 02:42:20;;;;;;;5.95;5.15;;;16.80;99.90;;;;;;5013243;28;20471;-82
2023/09/22 02:44:46;;;;;;;6.60;5.85;;;16.80;99.90;;;;;;4996393;28;20470;-82
2023/09/22 02:47:13;;;;;;;7.60;6.38;;;16.90;99.90;;;;;;5013402;28;20042;-81
2023/09/22 02:49:38;;;;;;;5.85;4.88;;;16.90;99.90;;;;;;4996263;28;20053;-81
2023/09/22 02:52:04;;;;;;;5.80;3.95;;;16.90;99.90;;;;;;5013332;28;20390;-83
2023/09/22 02:54:29;;;;;;;10.02;7.72;;;17.00;99.90;;;;;;5013234;28;20089;-83
2023/09/22 02:56:55;;;;;;;4.13;3.72;;;17.00;99.90;;;;;;5013661;28;20038;-82
2023/09/22 02:59:22;;;;;;;7.38;6.03;;;17.00;99.90;;;;;;4995948;28;20116;-82
2023/09/22 03:01:49;;;;;;;7.32;5.60;;;17.00;99.90;;;;;;5013450;28;20022;-81
2023/09/22 03:04:15;;;;;;;4.70;3.90;;;17.00;99.90;;;;;;5013457;28;20057;-82
2023/09/22 03:06:40;;;;;;;10.52;7.32;;;17.00;99.90;;;;;;5012997;28;20042;-82
2023/09/22 03:09:06;;;;;;;5.32;3.72;;;17.00;99.90;;;;;;5013121;28;20030;-84
2023/09/22 03:11:33;;;;;;;6.10;3.33;;;17.00;99.90;;;;;;4995464;28;20100;-82
2023/09/22 03:13:59;;;;;;;4.63;3.75;;;17.00;99.90;;;;;;5013111;28;20065;-84
2023/09/22 03:16:28;;;;;;;3.97;3.55;;;17.10;99.90;;;;;;4995780;28;20501;-85
2023/09/22 03:18:54;;;;;;;3.25;2.95;;;17.10;99.90;;;;;;5013169;28;20030;-85
2023/09/22 03:21:22;;;;;;;6.05;4.65;;;17.10;99.90;;;;;;4995610;28;20517;-83
2023/09/22 03:23:54;;;;;;;5.15;4.50;;;17.20;99.90;;;;;;4996582;28;20069;-84
2023/09/22 03:26:21;;;;;;;6.70;5.07;;;17.20;99.90;;;;;;5013109;28;20069;-83
2023/09/22 03:28:48;;;;;;;3.35;2.80;;;17.10;99.90;;;;;;5013669;28;20042;-84
2023/09/22 03:31:14;;;;;;;5.82;3.75;;;17.20;99.90;;;;;;5012866;28;20071;-85
2023/09/22 03:33:43;;;;;;;6.57;4.28;;;17.20;99.90;;;;;;5016727;28;20084;-84
2023/09/22 03:36:10;;;;;;;6.05;4.13;;;17.30;99.90;;;;;;4999503;28;20125;-84
2023/09/22 03:38:46;;;;;;;3.33;3.03;;;17.30;99.90;;;;;;5016550;28;20022;-84
2023/09/22 03:41:17;;;;;;;5.53;3.60;;;17.30;99.90;;;;;;5016413;28;20478;-84
2023/09/22 03:43:46;;;;;;;5.00;3.40;;;17.30;99.90;;;;;;5016475;28;20473;-83
2023/09/22 03:46:11;;;;;;;3.60;2.05;;;17.30;99.90;;;;;;4983628;28;20034;-83
2023/09/22 03:48:37;;;;;;;4.15;3.47;;;17.40;99.90;;;;;;4998776;28;20061;-83
2023/09/22 03:51:04;;;;;;;5.80;3.05;;;17.40;99.90;;;;;;5016562;28;20038;-84
2023/09/22 03:53:30;;;;;;;6.30;3.65;;;17.50;99.90;;;;;;5016749;28;20073;-84
2023/09/22 03:55:55;;;;;;;5.63;4.20;;;17.50;99.90;;;;;;4999183;28;20038;-82
2023/09/22 03:58:21;;;;;;;4.57;3.53;;;17.50;99.90;;;;;;5016199;28;20033;-83
2023/09/22 04:00:47;;;;;;;5.45;4.15;;;17.40;99.90;;;;;;4998362;28;20454;-83
2023/09/22 04:03:13;;;;;;;5.80;4.30;;;17.40;99.90;;;;;;4982313;28;20034;-83
2023/09/22 04:05:42;;;;;;;6.47;4.22;;;17.40;99.90;;;;;;5015925;28;20081;-83
2023/09/22 04:08:07;;;;;;;5.47;4.55;;;17.30;99.90;;;;;;4999238;28;20128;-83
2023/09/22 04:10:33;;;;;;;4.82;4.07;;;17.20;99.90;;;;;;5016204;28;20113;-83
2023/09/22 04:12:59;;;;;;;11.63;6.13;;;17.10;99.90;;;;;;5016100;28;20466;-83
2023/09/22 04:15:25;;;;;;;12.05;7.65;;;17.10;99.90;;;;;;5016698;28;20034;-84
2023/09/22 04:17:51;;;;;;;5.97;4.00;;;17.00;99.90;;;;;;5016178;28;20030;-84
2023/09/22 04:20:26;;;;;;;4.43;3.35;;;17.00;99.90;;;;;;4998491;28;20068;-82
2023/09/22 04:22:53;;;;;;;4.57;3.65;;;17.00;99.90;;;;;;4998588;28;20025;-85
2023/09/22 04:25:19;;;;;;;6.30;4.53;;;17.00;99.90;;;;;;5016129;28;20060;-85
2023/09/22 04:27:53;;;;;;;3.53;3.13;;;17.00;99.90;;;;;;4998620;28;20088;-83
2023/09/22 04:30:20;;;;;;;10.57;7.03;;;17.10;99.90;;;;;;4998629;28;20041;-86
2023/09/22 04:32:47;;;;;;;7.13;5.07;;;17.10;99.90;;;;;;5017053;28;20105;-85
2023/09/22 04:35:13;;;;;;;7.78;5.78;;;17.00;99.90;;;;;;5004840;28;20044;-86
2023/09/22 04:37:40;;;;;;;6.05;4.60;;;17.00;99.90;;;;;;5016545;28;20022;-84
2023/09/22 04:40:11;;;;;;;10.65;6.10;;;17.00;99.90;;;;;;5015836;28;20087;-83
2023/09/22 04:42:37;;;;;;;6.50;3.80;;;16.90;99.90;;;;;;4983278;28;20062;-85
2023/09/22 04:45:03;;;;;;;8.82;6.38;;;16.90;99.90;;;;;;5015051;28;20026;-85
2023/09/22 04:47:29;;;;;;;7.30;5.45;;;16.80;99.90;;;;;;5015402;28;20037;-84
2023/09/22 04:49:57;;;;;;;7.43;4.78;;;16.80;99.90;;;;;;5005406;28;20038;-83
2023/09/22 04:52:22;;;;;;;6.00;4.35;;;16.80;99.90;;;;;;5018570;28;20101;-84
2023/09/22 04:54:48;;;;;;;5.03;3.67;;;16.70;99.90;;;;;;5005391;28;20050;-85
2023/09/22 04:57:14;;;;;;;7.05;4.75;;;16.70;99.90;;;;;;5004353;28;20352;-86
2023/09/22 04:59:40;;;;;;;9.45;4.18;;;16.70;99.90;;;;;;5017987;28;20029;-85
2023/09/22 05:02:07;;;;;;;7.70;4.90;;;16.60;99.90;;;;;;5020176;28;20422;-86
2023/09/22 05:04:33;;;;;;;6.55;4.85;;;16.60;99.90;;;;;;4999055;28;20088;-86
2023/09/22 05:06:59;;;;;;;7.25;4.28;;;16.60;99.90;;;;;;4998473;28;20038;-86
2023/09/22 05:09:25;;;;;;;5.60;4.25;;;16.60;99.90;;;;;;5017088;28;20034;-88
2023/09/22 05:11:51;;;;;;;5.28;3.60;;;16.60;99.90;;;;;;4997879;28;20460;-84
2023/09/22 05:14:17;;;;;;;10.00;5.35;;;16.70;99.90;;;;;;5015633;28;20113;-85
2023/09/22 05:16:43;;;;;;;5.57;4.18;;;16.60;99.90;;;;;;4998093;28;20589;-88
2023/09/22 05:19:09;;;;;;;8.88;4.22;;;16.60;99.90;;;;;;4981465;28;20113;-87
2023/09/22 05:21:35;;;;;;;5.18;3.35;;;16.60;99.90;;;;;;5015586;28;20037;-86
2023/09/22 05:24:02;;;;;;;6.05;3.03;;;16.50;99.90;;;;;;4981541;28;20026;-88
2023/09/22 05:26:28;;;;;;;4.85;3.13;;;16.50;99.90;;;;;;5015154;28;20069;-86
2023/09/22 05:28:54;;;;;;;6.18;3.28;;;16.50;99.90;;;;;;5015232;28;20030;-90
2023/09/22 05:31:19;;;;;;;5.97;3.80;;;16.60;99.90;;;;;;5015298;28;20025;-90
2023/09/22 05:33:45;;;;;;;4.88;3.13;;;16.60;99.90;;;;;;5015629;28;20054;-89
2023/09/22 05:36:11;;;;;;;4.85;2.80;;;16.60;99.90;;;;;;5015108;28;20065;-89
2023/09/22 05:38:37;;;;;;;3.65;2.30;;;16.60;99.90;;;;;;5015338;28;20042;-89
2023/09/22 05:41:04;;;;;;;2.58;2.20;;;16.60;99.90;;;;;;5015163;28;20534;-86
2023/09/22 05:43:31;;;;;;;4.22;2.70;;;16.60;99.90;;;;;;4998134;28;20470;-81
2023/09/22 05:45:56;;;;;;;7.05;2.85;;;16.60;99.90;;;;;;5014235;28;20045;-81
2023/09/22 05:48:22;;;;;;;4.20;2.33;;;16.60;99.90;;;;;;5014468;28;20029;-83
2023/09/22 05:50:59;;;;;;;5.97;3.47;;;16.60;99.90;;;;;;4996728;28;20057;-84
2023/09/22 05:53:26;;;;;;;6.15;3.25;;;16.60;99.90;;;;;;5013921;28;20026;-83
2023/09/22 05:56:10;;;;;;;3.92;2.58;;;16.60;99.90;;;;;;5013241;28;20092;-82
2023/09/22 05:58:40;;;;;;;5.07;2.80;;;16.70;99.90;;;;;;5013683;28;20036;-86
2023/09/22 06:01:13;;;;;;;7.38;2.72;;;16.60;99.90;;;;;;5013938;28;20076;-82
2023/09/22 06:03:40;;;;;;;8.30;3.00;;;16.60;99.90;;;;;;4996643;28;20375;-84
2023/09/22 06:06:16;;;;;;;4.18;2.47;;;16.60;99.90;;;;;;5013845;28;20065;-84
2023/09/22 06:08:44;;;;;;;3.75;2.42;;;16.70;99.90;;;;;;4996372;28;20036;-82
2023/09/22 06:11:11;;;;;;;4.05;1.70;;;16.70;99.90;;;;;;5013454;28;20448;-79
2023/09/22 06:13:38;;;;;;;5.65;2.50;;;16.70;99.90;;;;;;5013703;28;20068;-80
2023/09/22 06:16:04;;;;;;;5.03;1.90;;;16.70;99.90;;;;;;4996999;28;20046;-86
2023/09/22 06:18:31;;;;;;;3.33;2.30;;;16.70;99.90;;;;;;4998507;28;20034;-87
2023/09/22 06:21:02;;;;;;;6.57;2.10;;;16.70;99.90;;;;;;5014789;28;20467;-83
2023/09/22 06:23:28;;;;;;;3.90;1.40;;;16.80;99.90;;;;;;5014505;28;20490;-82
2023/09/22 06:26:00;;;;;;;4.03;1.60;;;16.80;99.90;;;;;;4996742;28;20045;-84
2023/09/22 06:28:26;;;;;;;4.75;2.40;;;16.80;99.90;;;;;;5014694;28;20173;-84
2023/09/22 06:30:52;;;;;;;3.63;1.75;;;16.80;99.90;;;;;;5013797;28;20122;-84
2023/09/22 06:33:18;;;;;;;5.45;1.63;;;16.70;99.90;;;;;;5014392;28;20034;-84
2023/09/22 06:35:46;;;;;;;3.28;1.40;;;16.70;99.90;;;;;;5013462;28;20109;-83
2023/09/22 06:38:13;;;;;;;4.70;1.27;;;16.60;99.90;;;;;;4996875;28;20078;-82
2023/09/22 06:40:39;;;;;;;4.88;1.60;;;16.60;99.90;;;;;;5013735;28;20038;-84
2023/09/22 06:43:07;;;;;;;3.17;1.27;;;16.60;99.90;;;;;;5013994;28;20483;-87
2023/09/22 06:45:35;;;;;;;4.80;1.77;;;16.60;99.90;;;;;;4996781;28;20038;-84
2023/09/22 06:48:03;;;;;;;6.75;1.60;;;16.60;99.90;;;;;;4997114;28;20405;-83
2023/09/22 06:50:33;;;;;;;4.03;1.30;;;16.60;99.90;;;;;;4998243;28;20034;-85
2023/09/22 06:52:59;;;;;;;4.35;1.63;;;16.60;99.90;;;;;;5019170;28;20064;-87
2023/09/22 06:55:25;;;;;;;4.05;1.15;;;16.60;99.90;;;;;;5016989;28;20034;-86
2023/09/22 06:57:52;;;;;;;3.25;1.30;;;16.70;99.90;;;;;;4998075;28;20042;-85
2023/09/22 07:00:18;;;;;;;3.70;1.20;;;16.70;99.90;;;;;;4998329;28;20053;-85
2023/09/22 07:02:47;;;;;;;2.58;0.93;;;16.70;99.90;;;;;;5017019;28;20454;-85
2023/09/22 07:05:13;;;;;;;3.55;1.08;;;16.80;99.90;;;;;;5015303;28;20033;-83
2023/09/22 07:07:39;;;;;;;6.57;1.77;;;16.80;99.90;;;;;;4983393;28;20117;-85
2023/09/22 07:10:09;;;;;;;5.85;1.40;;;16.80;99.90;;;;;;5020360;28;20501;-86
2023/09/22 07:12:39;;;;;;;9.07;1.63;;;16.90;99.90;;;;;;5018891;28;20049;-82
2023/09/22 07:15:06;;;;;;;5.93;1.27;;;16.80;99.90;;;;;;5017599;28;20026;-84
2023/09/22 07:17:31;;;;;;;8.30;1.90;;;16.70;99.90;;;;;;5017062;28;20304;-85
2023/09/22 07:20:01;;;;;;;5.97;1.50;;;16.70;99.90;;;;;;5017482;28;20037;-87
2023/09/22 07:22:33;;;;;;;8.90;2.20;;;16.70;99.90;;;;;;5017738;28;20022;-84
2023/09/22 07:24:59;;;;;;;2.88;1.00;;;16.60;99.90;;;;;;5017586;28;20053;-85
2023/09/22 07:27:25;;;;;;;8.43;1.58;;;16.60;99.90;;;;;;4999446;28;20126;-86
2023/09/22 07:29:51;;;;;;;5.18;1.42;;;16.60;99.90;;;;;;4999461;28;20431;-87
2023/09/22 07:32:17;;;;;;;6.93;1.73;;;16.60;99.90;;;;;;4999361;28;20037;-87
2023/09/22 07:34:43;;;;;;;4.75;1.10;;;16.60;99.90;;;;;;5017310;28;20022;-88
2023/09/22 07:37:11;;;;;;;5.30;1.65;;;16.60;99.90;;;;;;4999517;28;20085;-82
2023/09/22 07:39:37;;;;;;;7.53;1.52;;;16.60;99.90;;;;;;5016163;28;20049;-83
2023/09/22 07:42:07;;;;;;;6.13;1.52;;;16.70;99.90;;;;;;5016548;28;20033;-83
2023/09/22 07:44:33;;;;;;;4.25;1.25;;;16.70;99.90;;;;;;4998725;28;20047;-81
2023/09/22 07:47:00;;;;;;;3.15;1.05;;;16.70;99.90;;;;;;5016398;28;20056;-84
2023/09/22 07:49:26;;;;;;;6.03;1.25;;;16.90;99.90;;;;;;4999300;28;20125;-85
2023/09/22 07:51:53;;;;;;;5.90;1.30;;;17.00;99.60;;;;;;4998988;28;20061;-86
2023/09/22 07:54:21;;;;;;;3.10;0.70;;;17.00;99.40;;;;;;5016667;28;20026;-85
2023/09/22 07:56:47;;;;;;;2.13;0.57;;;17.00;98.90;;;;;;5017148;28;20112;-86
2023/09/22 07:59:14;;;;;;;4.05;1.13;;;16.90;98.70;;;;;;5016530;28;20060;-84
2023/09/22 08:01:42;;;;;;;4.15;1.10;;;16.90;98.90;;;;;;5015727;28;20048;-85
2023/09/22 08:04:11;;;;;;;5.47;0.95;;;16.90;98.60;;;;;;5015930;28;20084;-85
2023/09/22 08:06:37;;;;;;;3.90;0.90;;;16.80;98.10;;;;;;4999129;28;20037;-84
2023/09/22 08:09:05;;;;;;;4.15;0.80;;;16.80;97.70;;;;;;5015987;28;20025;-84
2023/09/22 08:11:32;;;;;;;6.75;0.95;;;16.80;98.30;;;;;;4998615;28;20030;-86
2023/09/22 08:14:01;;;;;;;3.80;0.60;;;16.90;98.50;;;;;;5015407;28;20136;-85
2023/09/22 08:16:27;;;;;;;3.30;0.68;;;16.90;98.20;;;;;;5015978;28;20113;-85
2023/09/22 08:18:54;;;;;;;4.47;0.60;;;17.00;98.20;;;;;;4997856;28;20395;-82
2023/09/22 08:21:21;;;;;;;4.68;0.70;;;16.90;97.50;;;;;;5015655;28;20057;-87
2023/09/22 08:23:47;;;;;;;2.80;0.50;;;16.90;98.00;;;;;;4998182;28;20471;-82
2023/09/22 08:26:17;;;;;;;3.10;0.55;;;17.00;97.70;;;;;;5014822;28;20042;-81
2023/09/22 08:28:47;;;;;;;3.20;0.60;;;17.00;97.70;;;;;;5015605;28;20053;-83
2023/09/22 08:31:13;;;;;;;2.75;0.55;;;17.20;97.70;;;;;;5015583;28;20048;-81
2023/09/22 08:33:39;;;;;;;4.78;0.50;;;17.20;97.70;;;;;;4997738;28;20463;-80
2023/09/22 08:36:05;;;;;;;5.90;0.95;;;17.20;96.70;;;;;;5015512;28;20062;-77
2023/09/22 08:38:32;;;;;;;3.40;0.50;;;17.00;96.60;;;;;;5015223;28;20064;-78
2023/09/22 08:41:00;;;;;;;2.50;0.40;;;17.00;97.10;;;;;;5015199;28;20034;-79
2023/09/22 08:43:26;;;;;;;3.40;0.70;;;17.00;97.30;;;;;;5015344;28;20064;-79
2023/09/22 08:45:53;;;;;;;3.42;0.50;;;17.10;97.60;;;;;;5015684;28;20117;-81
2023/09/22 08:48:19;;;;;;;1.52;0.38;;;17.20;97.70;;;;;;5015514;28;20032;-81
2023/09/22 08:50:46;;;;;;;2.47;0.52;;;17.40;97.20;;;;;;5015617;28;20531;-81
2023/09/22 08:53:12;;;;;;;2.38;0.57;;;17.40;96.80;;;;;;5015022;28;20139;-82
2023/09/22 08:55:40;;;;;;;1.75;0.35;;;17.40;96.90;;;;;;5014997;28;20061;-82
2023/09/22 08:58:06;;;;;;;2.00;0.40;;;17.60;97.10;;;;;;4997642;28;20487;-82
2023/09/22 09:00:33;;;;;;;2.90;0.30;;;17.90;96.70;;;;;;5015102;28;20030;-81
2023/09/22 09:03:08;;;;;;;3.00;0.40;;;18.00;95.90;;;;;;5014653;28;20049;-80
2023/09/22 09:05:34;;;;;;;4.55;0.93;;;18.10;94.90;;;;;;5014478;28;20033;-81
2023/09/22 09:08:18;;;;;;;3.35;0.60;;;18.10;94.90;;;;;;5013591;28;20025;-82
2023/09/22 09:10:46;;;;;;;2.08;0.57;;;18.10;94.90;;;;;;5015140;28;20076;-81
2023/09/22 09:13:16;;;;;;;1.15;0.25;;;18.10;94.50;;;;;;4997282;28;20056;-84
2023/09/22 09:15:47;;;;;;;2.08;0.20;;;18.10;94.20;;;;;;4997076;28;20038;-84
2023/09/22 09:18:18;;;;;;;2.78;0.40;;;18.20;94.20;;;;;;5013365;28;20040;-83
2023/09/22 09:20:45;;;;;;;2.22;0.30;;;18.30;93.70;;;;;;4997398;28;20378;-81
2023/09/22 09:23:18;;;;;;;1.38;0.30;;;18.30;93.90;;;;;;5014726;28;20466;-82
2023/09/22 09:25:54;;;;;;;2.50;0.30;;;18.30;94.10;;;;;;5014175;28;20030;-83
2023/09/22 09:28:21;;;;;;;2.15;0.20;;;18.30;94.30;;;;;;4996640;28;20026;-81
2023/09/22 09:30:51;;;;;;;3.08;0.38;;;18.30;93.70;;;;;;5013955;28;20025;-82
2023/09/22 09:33:19;;;;;;;2.40;0.40;;;18.30;93.50;;;;;;5014271;28;20021;-81
2023/09/22 09:35:45;;;;;;;3.15;0.35;;;18.30;93.30;;;;;;5014431;28;20068;-81
2023/09/22 09:38:12;;;;;;;2.53;0.40;;;18.20;93.80;;;;;;4996308;28;20431;-81
2023/09/22 09:40:38;;;;;;;2.97;0.40;;;18.30;94.10;;;;;;5014577;28;20034;-82
2023/09/22 09:43:11;;;;;;;2.47;0.77;;;18.50;94.40;;;;;;5014473;28;20561;-84
2023/09/22 09:45:48;;;;;;;2.80;0.50;;;18.50;94.10;;;;;;5015460;28;20176;-85
2023/09/22 09:48:19;;;;;;;2.17;0.30;;;18.40;93.00;;;;;;5015113;28;20029;-83
2023/09/22 09:50:50;;;;;;;3.28;0.47;;;18.20;93.10;;;;;;5014382;28;20054;-84
2023/09/22 09:53:42;;;;;;;2.60;0.30;;;18.10;93.40;;;;;;4997935;28;20030;-85
2023/09/22 09:56:11;;;;;;;2.72;0.30;;;18.20;93.30;;;;;;5016919;28;20426;-85
2023/09/22 09:58:38;;;;;;;2.65;0.32;;;18.10;93.10;;;;;;5015607;28;20022;-87
2023/09/22 10:01:05;;;;;;;2.03;0.40;;;18.10;93.60;;;;;;4997147;28;20030;-82
2023/09/22 10:03:32;;;;;;;1.48;0.30;;;18.20;93.00;;;;;;5014872;28;20034;-84
2023/09/22 10:05:58;;;;;;;2.05;0.80;;;18.30;93.30;;;;;;5014337;28;20076;-85
2023/09/22 10:08:29;;;;;;;2.65;0.25;;;18.40;93.50;;;;;;4996575;28;20121;-83
2023/09/22 10:11:03;;;;;;;2.97;0.30;;;18.50;93.20;;;;;;5014429;28;20048;-84
2023/09/22 10:13:29;;;;;;;3.63;0.28;;;18.60;92.60;;;;;;5016742;28;20054;-84
2023/09/22 10:16:05;;;;;;;1.48;0.35;;;18.80;92.90;;;;;;5016383;28;20038;-82
2023/09/22 10:18:50;;;;;;;2.50;0.20;;;18.90;92.80;;;;;;5014944;28;20442;-84
2023/09/22 10:21:38;;;;;;;2.85;0.30;;;19.10;92.40;;;;;;5013781;28;20026;-83
2023/09/22 10:24:25;;;;;;;2.60;0.30;;;19.10;91.70;;;;;;5014079;28;20118;-82
2023/09/22 10:26:56;;;;;;;2.00;0.20;;;19.00;91.50;;;;;;5018390;28;20038;-85
2023/09/22 10:29:34;;;;;;;1.95;0.30;;;18.80;91.00;;;;;;5018601;28;20022;-84
2023/09/22 10:32:18;;;;;;;1.20;0.15;;;18.60;91.50;;;;;;5015636;28;20037;-82
2023/09/22 10:34:51;;;;;;;2.13;0.30;;;18.70;91.80;;;;;;5014344;28;20026;-81
2023/09/22 10:37:24;;;;;;;4.40;0.20;;;18.90;91.70;;;;;;4995122;28;20030;-82
2023/09/22 10:39:55;;;;;;;1.52;0.32;;;19.10;91.20;;;;;;5013095;28;20040;-83
2023/09/22 10:42:21;;;;;;;1.58;0.20;;;19.30;90.90;;;;;;5014499;28;20076;-83
2023/09/22 10:45:05;;;;;;;1.58;0.52;;;19.40;91.10;;;;;;4999766;28;20025;-83
2023/09/22 10:47:45;;;;;;;0.88;0.20;;;19.70;91.00;;;;;;5019183;28;20120;-82
2023/09/22 10:50:15;;;;;;;2.55;0.20;;;19.50;89.50;;;;;;5016774;28;20060;-81
2023/09/22 10:52:57;;;;;;;1.15;0.10;;;19.50;90.10;;;;;;5017817;28;20028;-80
2023/09/22 10:55:34;;;;;;;1.88;0.30;;;19.60;90.60;;;;;;5000007;28;20040;-85
2023/09/22 10:58:01;;;;;;;1.90;0.20;;;19.70;90.90;;;;;;5017654;28;20034;-83
2023/09/22 11:00:27;;;;;;;2.90;0.20;;;19.80;91.10;;;;;;5016908;28;20069;-82
2023/09/22 11:02:54;;;;;;;3.10;0.20;;;20.00;91.10;;;;;;5016701;28;20030;-82
2023/09/22 11:05:20;;;;;;;2.22;0.17;;;20.00;90.00;;;;;;5016756;28;20044;-82
2023/09/22 11:07:47;;;;;;;2.60;0.10;;;20.00;89.40;;;;;;5016708;28;20105;-80
2023/09/22 11:10:22;;;;;;;3.08;0.30;;;20.00;89.80;;;;;;4999252;28;20447;-81
2023/09/22 11:12:49;;;;;;;1.33;0.10;;;20.00;89.60;;;;;;5016614;28;20406;-81
2023/09/22 11:15:14;;;;;;;1.52;0.10;;;20.10;89.80;;;;;;5015248;28;20025;-81
2023/09/22 11:17:42;;;;;;;2.78;0.20;;;19.90;87.60;;;;;;5016492;28;20026;-82
2023/09/22 11:20:14;;;;;;;2.80;0.82;;;19.70;88.90;;;;;;5016070;28;20034;-83
2023/09/22 11:22:42;;;;;;;1.27;0.20;;;19.60;88.40;;;;;;5017068;28;20034;-82
2023/09/22 11:25:11;;;;;;;2.42;0.20;;;19.50;88.90;;;;;;5016496;28;20396;-81
2023/09/22 11:27:44;;;;;;;1.50;0.20;;;19.50;89.70;;;;;;5016373;28;20088;-82
2023/09/22 11:30:14;;;;;;;3.28;0.20;;;19.60;88.70;;;;;;5016075;28;20419;-82
2023/09/22 11:32:40;;;;;;;1.92;0.28;;;19.70;87.90;;;;;;4998679;28;20534;-81
2023/09/22 11:35:06;;;;;;;1.13;0.20;;;19.80;88.10;;;;;;5016241;28;20054;-81
2023/09/22 11:37:32;;;;;;;2.03;0.30;;;19.80;88.20;;;;;;4998884;28;20065;-80
2023/09/22 11:39:58;;;;;;;0.82;0.20;;;19.80;87.60;;;;;;5016663;28;20026;-79
2023/09/22 11:42:23;;;;;;;1.00;0.20;;;19.80;87.40;;;;;;5016050;28;20084;-82
2023/09/22 11:44:59;;;;;;;0.70;0.13;;;19.90;86.90;;;;;;4998601;28;20383;-80
2023/09/22 11:47:25;;;;;;;1.40;0.10;;;20.00;87.20;;;;;;5017325;28;20125;-81
2023/09/22 11:49:52;;;;;;;1.15;0.40;;;20.00;86.00;;;;;;5016032;28;20133;-81
2023/09/22 11:52:37;;;;;;;1.02;0.25;;;20.20;86.40;;;;;;4998795;28;20040;-82
2023/09/22 11:55:03;;;;;;;1.58;0.20;;;20.30;84.60;;;;;;5015645;28;20046;-81
2023/09/22 11:57:29;;;;;;;1.88;0.10;;;20.40;84.90;;;;;;5014175;28;20169;-81
2023/09/22 11:59:59;;;;;;;0.43;0.10;;;20.50;84.20;;;;;;5015320;28;20156;-81
2023/09/22 12:02:26;;;;;;;0.80;0.20;;;20.50;83.30;;;;;;5015830;28;20113;-81
2023/09/22 12:04:52;;;;;;;1.77;0.40;;;20.60;84.40;;;;;;4981876;28;20382;-80
2023/09/22 12:07:17;;;;;;;1.27;0.20;;;20.70;84.30;;;;;;5015860;28;20042;-81
2023/09/22 12:09:43;;;;;;;1.35;0.40;;;20.80;84.10;;;;;;5015487;28;20033;-77
2023/09/22 12:12:09;;;;;;;1.75;0.20;;;20.90;82.90;;;;;;5015814;28;20026;-79
2023/09/22 12:14:35;;;;;;;2.50;0.20;;;20.80;82.90;;;;;;4998654;28;20034;-81
2023/09/22 12:17:01;;;;;;;1.77;0.20;;;20.70;83.10;;;;;;5015604;28;20088;-81
2023/09/22 12:19:27;;;;;;;3.80;0.50;;;20.60;83.30;;;;;;4998679;28;20030;-80
2023/09/22 12:21:52;;;;;;;0.90;0.20;;;20.50;82.90;;;;;;4997408;28;20440;-73
2023/09/22 12:24:18;;;;;;;0.85;0.10;;;20.40;83.50;;;;;;5015249;28;20029;-79
2023/09/22 12:26:44;;;;;;;1.65;0.30;;;20.50;83.50;;;;;;5015757;28;20038;-80
2023/09/22 12:29:10;;;;;;;3.13;0.32;;;20.60;83.00;;;;;;5015634;28;20030;-80
2023/09/22 12:31:36;;;;;;;2.50;0.77;;;20.70;82.50;;;;;;4997717;28;20030;-81
2023/09/22 12:34:02;;;;;;;2.85;0.30;;;20.80;82.90;;;;;;4997906;28;20026;-80
2023/09/22 12:36:29;;;;;;;1.30;0.25;;;20.80;82.70;;;;;;4997831;28;20133;-80
2023/09/22 12:38:55;;;;;;;3.35;0.40;;;20.80;82.00;;;;;;5015400;28;20026;-81
2023/09/22 12:41:21;;;;;;;2.15;0.20;;;20.80;82.20;;;;;;5015554;28;20032;-81
2023/09/22 12:43:46;;;;;;;2.05;0.30;;;20.70;82.60;;;;;;5015271;28;20057;-81
2023/09/22 12:46:12;;;;;;;3.63;0.25;;;20.70;83.40;;;;;;5015357;28;20493;-80